sensor_id;sensor_type;location;lat;lon;timestamp;P1;durP1;ratioP1;P2;durP2;ratioP2
7539;SDS011;3811;49.006;12.076;2022-10-18T00:00:12;15.90;;;11.60;;
7539;SDS011;3811;49.006;12.076;2022-10-18T00:02:40;16.10;;;11.70;;
7539;SDS011;3811;49.006;12.076;2022-10-18T00:05:07;17.33;;;12.03;;
7539;SDS011;3811;49.006;12.076;2022-10-18T00:07:34;15.33;;;10.73;;
7539;SDS011;3811;49.006;12.076;2022-10-18T00:10:02;14.20;;;10.50;;
7539;SDS011;3811;49.006;12.076;2022-10-18T00:12:30;15.57;;;10.30;;
7539;SDS011;3811;49.006;12.076;2022-10-18T00:14:58;14.97;;;11.43;;
7539;SDS011;3811;49.006;12.076;2022-10-18T00:17:27;13.50;;;10.43;;
7539;SDS011;3811;49.006;12.076;2022-10-18T00:19:54;13.97;;;11.47;;
7539;SDS011;3811;49.006;12.076;2022-10-18T00:22:22;12.93;;;10.47;;
7539;SDS011;3811;49.006;12.076;2022-10-18T00:24:49;13.17;;;9.47;;
7539;SDS011;3811;49.006;12.076;2022-10-18T00:27:16;15.30;;;10.40;;
7539;SDS011;3811;49.006;12.076;2022-10-18T00:29:44;14.60;;;9.90;;
7539;SDS011;3811;49.006;12.076;2022-10-18T00:32:11;14.60;;;9.97;;
7539;SDS011;3811;49.006;12.076;2022-10-18T00:34:39;12.53;;;9.30;;
7539;SDS011;3811;49.006;12.076;2022-10-18T00:37:07;17.03;;;10.03;;
7539;SDS011;3811;49.006;12.076;2022-10-18T00:39:34;14.27;;;10.03;;
7539;SDS011;3811;49.006;12.076;2022-10-18T00:42:02;14.30;;;9.37;;
7539;SDS011;3811;49.006;12.076;2022-10-18T00:47:16;11.63;;;9.07;;
7539;SDS011;3811;49.006;12.076;2022-10-18T00:49:46;12.17;;;8.63;;
7539;SDS011;3811;49.006;12.076;2022-10-18T00:52:15;12.90;;;9.50;;
7539;SDS011;3811;49.006;12.076;2022-10-18T00:54:45;11.00;;;9.00;;
7539;SDS011;3811;49.006;12.076;2022-10-18T00:57:13;12.30;;;8.60;;
7539;SDS011;3811;49.006;12.076;2022-10-18T00:59:40;12.87;;;8.90;;
7539;SDS011;3811;49.006;12.076;2022-10-18T01:02:08;11.83;;;9.17;;
7539;SDS011;3811;49.006;12.076;2022-10-18T01:04:35;13.73;;;9.60;;
7539;SDS011;3811;49.006;12.076;2022-10-18T01:07:06;12.73;;;8.87;;
7539;SDS011;3811;49.006;12.076;2022-10-18T01:09:37;9.67;;;8.53;;
7539;SDS011;3811;49.006;12.076;2022-10-18T01:12:09;12.13;;;9.00;;
7539;SDS011;3811;49.006;12.076;2022-10-18T01:14:42;17.60;;;9.30;;
7539;SDS011;3811;49.006;12.076;2022-10-18T01:17:16;11.50;;;8.83;;
7539;SDS011;3811;49.006;12.076;2022-10-18T01:20:00;15.00;;;10.20;;
7539;SDS011;3811;49.006;12.076;2022-10-18T01:22:32;13.53;;;8.90;;
7539;SDS011;3811;49.006;12.076;2022-10-18T01:25:06;10.97;;;8.70;;
7539;SDS011;3811;49.006;12.076;2022-10-18T01:27:48;12.07;;;9.53;;
7539;SDS011;3811;49.006;12.076;2022-10-18T01:30:41;13.50;;;9.10;;
7539;SDS011;3811;49.006;12.076;2022-10-18T01:33:16;10.53;;;9.10;;
7539;SDS011;3811;49.006;12.076;2022-10-18T01:35:50;11.23;;;9.17;;
7539;SDS011;3811;49.006;12.076;2022-10-18T01:38:20;10.80;;;9.03;;
7539;SDS011;3811;49.006;12.076;2022-10-18T01:40:49;11.73;;;9.80;;
7539;SDS011;3811;49.006;12.076;2022-10-18T01:43:18;13.23;;;9.83;;
7539;SDS011;3811;49.006;12.076;2022-10-18T01:45:48;12.90;;;9.70;;
7539;SDS011;3811;49.006;12.076;2022-10-18T01:48:16;13.53;;;9.40;;
7539;SDS011;3811;49.006;12.076;2022-10-18T01:50:43;13.97;;;10.50;;
7539;SDS011;3811;49.006;12.076;2022-10-18T01:53:20;15.83;;;10.33;;
7539;SDS011;3811;49.006;12.076;2022-10-18T01:55:50;14.87;;;9.97;;
7539;SDS011;3811;49.006;12.076;2022-10-18T01:58:23;11.70;;;9.47;;
7539;SDS011;3811;49.006;12.076;2022-10-18T02:01:02;12.90;;;10.30;;
7539;SDS011;3811;49.006;12.076;2022-10-18T02:03:33;15.83;;;10.43;;
7539;SDS011;3811;49.006;12.076;2022-10-18T02:06:07;14.17;;;10.77;;
7539;SDS011;3811;49.006;12.076;2022-10-18T02:08:42;15.40;;;11.47;;
7539;SDS011;3811;49.006;12.076;2022-10-18T02:11:13;17.00;;;11.00;;
7539;SDS011;3811;49.006;12.076;2022-10-18T02:13:43;14.00;;;10.70;;
7539;SDS011;3811;49.006;12.076;2022-10-18T02:16:15;14.77;;;10.60;;
7539;SDS011;3811;49.006;12.076;2022-10-18T02:18:45;16.17;;;10.80;;
7539;SDS011;3811;49.006;12.076;2022-10-18T02:21:16;12.83;;;9.70;;
7539;SDS011;3811;49.006;12.076;2022-10-18T02:23:45;15.97;;;9.43;;
7539;SDS011;3811;49.006;12.076;2022-10-18T02:26:12;11.60;;;10.10;;
7539;SDS011;3811;49.006;12.076;2022-10-18T02:28:40;12.87;;;9.87;;
7539;SDS011;3811;49.006;12.076;2022-10-18T02:31:09;13.33;;;10.20;;
7539;SDS011;3811;49.006;12.076;2022-10-18T02:33:45;13.90;;;9.93;;
7539;SDS011;3811;49.006;12.076;2022-10-18T02:36:18;15.97;;;10.37;;
7539;SDS011;3811;49.006;12.076;2022-10-18T02:38:51;13.93;;;10.20;;
7539;SDS011;3811;49.006;12.076;2022-10-18T02:41:22;12.03;;;9.77;;
7539;SDS011;3811;49.006;12.076;2022-10-18T02:43:50;16.03;;;10.47;;
7539;SDS011;3811;49.006;12.076;2022-10-18T02:46:18;14.03;;;10.17;;
7539;SDS011;3811;49.006;12.076;2022-10-18T02:48:46;12.20;;;9.97;;
7539;SDS011;3811;49.006;12.076;2022-10-18T02:51:13;15.60;;;10.30;;
7539;SDS011;3811;49.006;12.076;2022-10-18T02:53:41;17.03;;;10.77;;
7539;SDS011;3811;49.006;12.076;2022-10-18T02:56:08;15.50;;;11.00;;
7539;SDS011;3811;49.006;12.076;2022-10-18T02:58:35;15.90;;;10.50;;
7539;SDS011;3811;49.006;12.076;2022-10-18T03:01:02;15.70;;;11.40;;
7539;SDS011;3811;49.006;12.076;2022-10-18T03:03:31;13.70;;;10.20;;
7539;SDS011;3811;49.006;12.076;2022-10-18T03:05:58;14.33;;;11.60;;
7539;SDS011;3811;49.006;12.076;2022-10-18T03:08:25;19.57;;;10.43;;
7539;SDS011;3811;49.006;12.076;2022-10-18T03:10:53;13.33;;;10.93;;
7539;SDS011;3811;49.006;12.076;2022-10-18T03:13:20;19.63;;;11.93;;
7539;SDS011;3811;49.006;12.076;2022-10-18T03:15:47;13.60;;;10.67;;
7539;SDS011;3811;49.006;12.076;2022-10-18T03:18:14;12.87;;;10.50;;
7539;SDS011;3811;49.006;12.076;2022-10-18T03:20:43;17.47;;;12.13;;
7539;SDS011;3811;49.006;12.076;2022-10-18T03:23:10;20.27;;;11.23;;
7539;SDS011;3811;49.006;12.076;2022-10-18T03:25:38;17.77;;;11.37;;
7539;SDS011;3811;49.006;12.076;2022-10-18T03:28:05;17.87;;;11.30;;
7539;SDS011;3811;49.006;12.076;2022-10-18T03:30:32;21.27;;;12.10;;
7539;SDS011;3811;49.006;12.076;2022-10-18T03:32:59;24.87;;;13.37;;
7539;SDS011;3811;49.006;12.076;2022-10-18T03:35:27;25.00;;;14.30;;
7539;SDS011;3811;49.006;12.076;2022-10-18T03:37:55;31.50;;;14.87;;
7539;SDS011;3811;49.006;12.076;2022-10-18T03:40:22;33.33;;;16.27;;
7539;SDS011;3811;49.006;12.076;2022-10-18T03:42:50;31.90;;;15.07;;
7539;SDS011;3811;49.006;12.076;2022-10-18T03:45:16;41.60;;;15.07;;
7539;SDS011;3811;49.006;12.076;2022-10-18T03:47:44;31.80;;;15.63;;
7539;SDS011;3811;49.006;12.076;2022-10-18T03:50:11;36.27;;;16.07;;
7539;SDS011;3811;49.006;12.076;2022-10-18T03:52:38;43.70;;;16.27;;
7539;SDS011;3811;49.006;12.076;2022-10-18T03:55:07;33.20;;;16.83;;
7539;SDS011;3811;49.006;12.076;2022-10-18T03:57:36;31.20;;;16.03;;
7539;SDS011;3811;49.006;12.076;2022-10-18T04:00:03;41.40;;;18.00;;
7539;SDS011;3811;49.006;12.076;2022-10-18T04:02:37;36.53;;;15.20;;
7539;SDS011;3811;49.006;12.076;2022-10-18T04:05:04;31.93;;;16.67;;
7539;SDS011;3811;49.006;12.076;2022-10-18T04:07:32;52.13;;;17.70;;
7539;SDS011;3811;49.006;12.076;2022-10-18T04:09:59;31.67;;;17.20;;
7539;SDS011;3811;49.006;12.076;2022-10-18T04:12:28;26.40;;;15.53;;
7539;SDS011;3811;49.006;12.076;2022-10-18T04:14:55;42.63;;;17.33;;
7539;SDS011;3811;49.006;12.076;2022-10-18T04:17:22;37.73;;;17.30;;
7539;SDS011;3811;49.006;12.076;2022-10-18T04:19:49;41.17;;;17.13;;
7539;SDS011;3811;49.006;12.076;2022-10-18T04:24:46;50.53;;;18.13;;
7539;SDS011;3811;49.006;12.076;2022-10-18T04:27:13;39.50;;;18.17;;
7539;SDS011;3811;49.006;12.076;2022-10-18T04:29:42;36.67;;;17.00;;
7539;SDS011;3811;49.006;12.076;2022-10-18T04:32:09;34.57;;;17.83;;
7539;SDS011;3811;49.006;12.076;2022-10-18T04:34:36;34.80;;;16.73;;
7539;SDS011;3811;49.006;12.076;2022-10-18T04:37:03;31.57;;;17.50;;
7539;SDS011;3811;49.006;12.076;2022-10-18T04:39:30;30.10;;;16.33;;
7539;SDS011;3811;49.006;12.076;2022-10-18T04:41:57;28.90;;;16.53;;
7539;SDS011;3811;49.006;12.076;2022-10-18T04:44:24;41.17;;;17.80;;
7539;SDS011;3811;49.006;12.076;2022-10-18T04:46:53;42.47;;;17.63;;
7539;SDS011;3811;49.006;12.076;2022-10-18T04:49:20;36.23;;;17.03;;
7539;SDS011;3811;49.006;12.076;2022-10-18T04:51:49;24.87;;;16.30;;
7539;SDS011;3811;49.006;12.076;2022-10-18T04:54:17;66.67;;;19.43;;
7539;SDS011;3811;49.006;12.076;2022-10-18T04:56:44;32.77;;;16.83;;
7539;SDS011;3811;49.006;12.076;2022-10-18T04:59:11;31.80;;;15.67;;
7539;SDS011;3811;49.006;12.076;2022-10-18T05:01:39;35.87;;;16.50;;
7539;SDS011;3811;49.006;12.076;2022-10-18T05:04:07;38.30;;;17.20;;
7539;SDS011;3811;49.006;12.076;2022-10-18T05:06:34;38.17;;;16.63;;
7539;SDS011;3811;49.006;12.076;2022-10-18T05:09:02;30.93;;;14.73;;
7539;SDS011;3811;49.006;12.076;2022-10-18T05:11:29;31.37;;;16.43;;
7539;SDS011;3811;49.006;12.076;2022-10-18T05:13:56;22.80;;;14.57;;
7539;SDS011;3811;49.006;12.076;2022-10-18T05:16:24;22.80;;;15.80;;
7539;SDS011;3811;49.006;12.076;2022-10-18T05:19:00;27.67;;;16.47;;
7539;SDS011;3811;49.006;12.076;2022-10-18T05:21:30;31.40;;;17.43;;
7539;SDS011;3811;49.006;12.076;2022-10-18T05:23:57;34.50;;;17.57;;
7539;SDS011;3811;49.006;12.076;2022-10-18T05:26:24;33.17;;;17.17;;
7539;SDS011;3811;49.006;12.076;2022-10-18T05:28:51;29.53;;;15.23;;
7539;SDS011;3811;49.006;12.076;2022-10-18T05:31:18;23.63;;;16.70;;
7539;SDS011;3811;49.006;12.076;2022-10-18T05:33:46;20.23;;;14.70;;
7539;SDS011;3811;49.006;12.076;2022-10-18T05:36:13;19.87;;;15.07;;
7539;SDS011;3811;49.006;12.076;2022-10-18T05:38:42;44.70;;;16.20;;
7539;SDS011;3811;49.006;12.076;2022-10-18T05:41:10;24.03;;;15.10;;
7539;SDS011;3811;49.006;12.076;2022-10-18T05:43:37;19.40;;;14.57;;
7539;SDS011;3811;49.006;12.076;2022-10-18T05:46:05;24.53;;;14.90;;
7539;SDS011;3811;49.006;12.076;2022-10-18T05:48:32;18.13;;;14.10;;
7539;SDS011;3811;49.006;12.076;2022-10-18T05:51:00;22.47;;;14.27;;
7539;SDS011;3811;49.006;12.076;2022-10-18T05:53:27;17.70;;;13.60;;
7539;SDS011;3811;49.006;12.076;2022-10-18T05:55:58;34.13;;;14.43;;
7539;SDS011;3811;49.006;12.076;2022-10-18T05:58:36;25.77;;;14.00;;
7539;SDS011;3811;49.006;12.076;2022-10-18T06:01:04;26.57;;;13.40;;
7539;SDS011;3811;49.006;12.076;2022-10-18T06:03:32;21.93;;;13.47;;
7539;SDS011;3811;49.006;12.076;2022-10-18T06:05:59;18.13;;;12.43;;
7539;SDS011;3811;49.006;12.076;2022-10-18T06:08:26;22.70;;;12.57;;
7539;SDS011;3811;49.006;12.076;2022-10-18T06:10:54;20.70;;;12.87;;
7539;SDS011;3811;49.006;12.076;2022-10-18T06:13:29;19.73;;;13.40;;
7539;SDS011;3811;49.006;12.076;2022-10-18T06:15:57;21.03;;;12.40;;
7539;SDS011;3811;49.006;12.076;2022-10-18T06:18:24;17.70;;;12.77;;
7539;SDS011;3811;49.006;12.076;2022-10-18T06:20:55;15.17;;;12.60;;
7539;SDS011;3811;49.006;12.076;2022-10-18T06:23:23;17.67;;;13.03;;
7539;SDS011;3811;49.006;12.076;2022-10-18T06:25:50;18.53;;;13.40;;
7539;SDS011;3811;49.006;12.076;2022-10-18T06:28:17;19.23;;;13.60;;
7539;SDS011;3811;49.006;12.076;2022-10-18T06:30:44;15.30;;;12.60;;
7539;SDS011;3811;49.006;12.076;2022-10-18T06:33:12;14.93;;;12.50;;
7539;SDS011;3811;49.006;12.076;2022-10-18T06:35:39;18.50;;;13.57;;
7539;SDS011;3811;49.006;12.076;2022-10-18T06:38:06;17.00;;;14.13;;
7539;SDS011;3811;49.006;12.076;2022-10-18T06:40:35;15.97;;;13.03;;
7539;SDS011;3811;49.006;12.076;2022-10-18T06:43:02;15.83;;;12.80;;
7539;SDS011;3811;49.006;12.076;2022-10-18T06:45:31;16.80;;;13.00;;
7539;SDS011;3811;49.006;12.076;2022-10-18T06:47:58;17.33;;;12.90;;
7539;SDS011;3811;49.006;12.076;2022-10-18T06:50:27;15.70;;;13.23;;
7539;SDS011;3811;49.006;12.076;2022-10-18T06:52:54;16.77;;;12.57;;
7539;SDS011;3811;49.006;12.076;2022-10-18T06:55:21;16.53;;;13.57;;
7539;SDS011;3811;49.006;12.076;2022-10-18T06:57:48;17.37;;;13.13;;
7539;SDS011;3811;49.006;12.076;2022-10-18T07:00:15;16.37;;;12.47;;
7539;SDS011;3811;49.006;12.076;2022-10-18T07:02:42;19.40;;;13.07;;
7539;SDS011;3811;49.006;12.076;2022-10-18T07:05:09;16.23;;;12.63;;
7539;SDS011;3811;49.006;12.076;2022-10-18T07:07:38;18.43;;;13.77;;
7539;SDS011;3811;49.006;12.076;2022-10-18T07:10:05;16.10;;;12.47;;
7539;SDS011;3811;49.006;12.076;2022-10-18T07:12:32;17.87;;;14.17;;
7539;SDS011;3811;49.006;12.076;2022-10-18T07:14:59;15.10;;;12.33;;
7539;SDS011;3811;49.006;12.076;2022-10-18T07:17:26;18.27;;;12.07;;
7539;SDS011;3811;49.006;12.076;2022-10-18T07:19:53;17.57;;;12.70;;
7539;SDS011;3811;49.006;12.076;2022-10-18T07:22:26;15.77;;;12.33;;
7539;SDS011;3811;49.006;12.076;2022-10-18T07:24:55;16.73;;;13.10;;
7539;SDS011;3811;49.006;12.076;2022-10-18T07:27:22;16.00;;;12.17;;
7539;SDS011;3811;49.006;12.076;2022-10-18T07:29:49;14.93;;;12.00;;
7539;SDS011;3811;49.006;12.076;2022-10-18T07:32:17;21.93;;;13.63;;
7539;SDS011;3811;49.006;12.076;2022-10-18T07:34:44;16.40;;;12.60;;
7539;SDS011;3811;49.006;12.076;2022-10-18T07:37:12;16.70;;;13.27;;
7539;SDS011;3811;49.006;12.076;2022-10-18T07:39:39;17.60;;;13.00;;
7539;SDS011;3811;49.006;12.076;2022-10-18T07:42:07;21.17;;;13.07;;
7539;SDS011;3811;49.006;12.076;2022-10-18T07:44:34;16.27;;;12.37;;
7539;SDS011;3811;49.006;12.076;2022-10-18T07:47:02;15.83;;;12.50;;
7539;SDS011;3811;49.006;12.076;2022-10-18T07:49:29;18.83;;;13.10;;
7539;SDS011;3811;49.006;12.076;2022-10-18T07:52:06;22.30;;;14.30;;
7539;SDS011;3811;49.006;12.076;2022-10-18T07:54:33;16.63;;;12.83;;
7539;SDS011;3811;49.006;12.076;2022-10-18T07:57:00;19.97;;;13.47;;
7539;SDS011;3811;49.006;12.076;2022-10-18T07:59:31;19.13;;;13.67;;
7539;SDS011;3811;49.006;12.076;2022-10-18T08:01:58;18.43;;;13.77;;
7539;SDS011;3811;49.006;12.076;2022-10-18T08:04:25;16.90;;;13.17;;
7539;SDS011;3811;49.006;12.076;2022-10-18T08:06:52;19.47;;;13.20;;
7539;SDS011;3811;49.006;12.076;2022-10-18T08:09:19;20.40;;;13.13;;
7539;SDS011;3811;49.006;12.076;2022-10-18T08:11:47;17.10;;;12.77;;
7539;SDS011;3811;49.006;12.076;2022-10-18T08:14:14;18.23;;;11.60;;
7539;SDS011;3811;49.006;12.076;2022-10-18T08:16:43;16.90;;;12.80;;
7539;SDS011;3811;49.006;12.076;2022-10-18T08:19:09;18.53;;;12.83;;
7539;SDS011;3811;49.006;12.076;2022-10-18T08:21:36;18.73;;;12.33;;
7539;SDS011;3811;49.006;12.076;2022-10-18T08:24:04;21.60;;;13.50;;
7539;SDS011;3811;49.006;12.076;2022-10-18T08:26:31;18.87;;;11.90;;
7539;SDS011;3811;49.006;12.076;2022-10-18T08:28:58;19.40;;;12.03;;
7539;SDS011;3811;49.006;12.076;2022-10-18T08:31:30;18.97;;;12.70;;
7539;SDS011;3811;49.006;12.076;2022-10-18T08:33:59;19.70;;;12.67;;
7539;SDS011;3811;49.006;12.076;2022-10-18T08:36:26;20.13;;;13.07;;
7539;SDS011;3811;49.006;12.076;2022-10-18T08:38:53;16.10;;;12.20;;
7539;SDS011;3811;49.006;12.076;2022-10-18T08:44:18;17.40;;;13.13;;
7539;SDS011;3811;49.006;12.076;2022-10-18T08:46:48;17.80;;;13.13;;
7539;SDS011;3811;49.006;12.076;2022-10-18T08:49:21;18.87;;;13.27;;
7539;SDS011;3811;49.006;12.076;2022-10-18T08:51:53;18.87;;;13.70;;
7539;SDS011;3811;49.006;12.076;2022-10-18T08:54:23;20.43;;;13.40;;
7539;SDS011;3811;49.006;12.076;2022-10-18T08:56:57;21.67;;;13.73;;
7539;SDS011;3811;49.006;12.076;2022-10-18T08:59:26;19.07;;;12.87;;
7539;SDS011;3811;49.006;12.076;2022-10-18T09:01:59;18.37;;;13.90;;
7539;SDS011;3811;49.006;12.076;2022-10-18T09:04:41;18.37;;;14.10;;
7539;SDS011;3811;49.006;12.076;2022-10-18T09:07:18;25.13;;;16.03;;
7539;SDS011;3811;49.006;12.076;2022-10-18T09:10:02;19.70;;;14.63;;
7539;SDS011;3811;49.006;12.076;2022-10-18T09:12:40;19.90;;;14.03;;
7539;SDS011;3811;49.006;12.076;2022-10-18T09:15:20;19.50;;;14.30;;
7539;SDS011;3811;49.006;12.076;2022-10-18T09:17:59;19.63;;;14.97;;
7539;SDS011;3811;49.006;12.076;2022-10-18T09:20:41;17.53;;;13.30;;
7539;SDS011;3811;49.006;12.076;2022-10-18T09:23:16;18.63;;;13.43;;
7539;SDS011;3811;49.006;12.076;2022-10-18T09:25:46;20.27;;;14.63;;
7539;SDS011;3811;49.006;12.076;2022-10-18T09:28:15;19.67;;;12.83;;
7539;SDS011;3811;49.006;12.076;2022-10-18T09:30:51;21.73;;;14.20;;
7539;SDS011;3811;49.006;12.076;2022-10-18T09:33:32;22.03;;;14.57;;
7539;SDS011;3811;49.006;12.076;2022-10-18T09:36:09;17.03;;;13.47;;
7539;SDS011;3811;49.006;12.076;2022-10-18T09:38:41;21.10;;;14.53;;
7539;SDS011;3811;49.006;12.076;2022-10-18T09:41:12;17.77;;;13.90;;
7539;SDS011;3811;49.006;12.076;2022-10-18T09:43:46;17.57;;;13.20;;
7539;SDS011;3811;49.006;12.076;2022-10-18T09:46:19;19.10;;;14.37;;
7539;SDS011;3811;49.006;12.076;2022-10-18T09:48:48;18.17;;;13.67;;
7539;SDS011;3811;49.006;12.076;2022-10-18T09:51:20;17.80;;;14.00;;
7539;SDS011;3811;49.006;12.076;2022-10-18T09:53:55;18.30;;;13.03;;
7539;SDS011;3811;49.006;12.076;2022-10-18T09:56:40;19.20;;;13.13;;
7539;SDS011;3811;49.006;12.076;2022-10-18T09:59:17;18.50;;;15.40;;
7539;SDS011;3811;49.006;12.076;2022-10-18T10:01:55;17.80;;;13.87;;
7539;SDS011;3811;49.006;12.076;2022-10-18T10:04:22;16.53;;;13.30;;
7539;SDS011;3811;49.006;12.076;2022-10-18T10:09:27;17.90;;;13.97;;
7539;SDS011;3811;49.006;12.076;2022-10-18T10:11:56;16.97;;;14.43;;
7539;SDS011;3811;49.006;12.076;2022-10-18T10:14:24;16.73;;;14.03;;
7539;SDS011;3811;49.006;12.076;2022-10-18T10:16:53;14.97;;;12.70;;
7539;SDS011;3811;49.006;12.076;2022-10-18T10:19:23;15.83;;;12.70;;
7539;SDS011;3811;49.006;12.076;2022-10-18T10:21:54;15.67;;;14.03;;
7539;SDS011;3811;49.006;12.076;2022-10-18T10:24:27;21.50;;;14.60;;
7539;SDS011;3811;49.006;12.076;2022-10-18T10:27:01;17.23;;;14.10;;
7539;SDS011;3811;49.006;12.076;2022-10-18T10:29:45;20.17;;;14.97;;
7539;SDS011;3811;49.006;12.076;2022-10-18T10:32:16;17.33;;;13.80;;
7539;SDS011;3811;49.006;12.076;2022-10-18T10:34:44;16.07;;;14.40;;
7539;SDS011;3811;49.006;12.076;2022-10-18T10:37:25;15.53;;;13.53;;
7539;SDS011;3811;49.006;12.076;2022-10-18T10:40:12;14.60;;;13.07;;
7539;SDS011;3811;49.006;12.076;2022-10-18T10:42:50;14.90;;;13.40;;
7539;SDS011;3811;49.006;12.076;2022-10-18T10:45:26;15.77;;;13.17;;
7539;SDS011;3811;49.006;12.076;2022-10-18T10:48:00;14.63;;;13.13;;
7539;SDS011;3811;49.006;12.076;2022-10-18T10:50:29;16.60;;;12.10;;
7539;SDS011;3811;49.006;12.076;2022-10-18T10:52:56;13.73;;;12.23;;
7539;SDS011;3811;49.006;12.076;2022-10-18T10:55:27;19.37;;;12.57;;
7539;SDS011;3811;49.006;12.076;2022-10-18T10:57:58;13.10;;;11.67;;
7539;SDS011;3811;49.006;12.076;2022-10-18T11:00:36;13.70;;;12.37;;
7539;SDS011;3811;49.006;12.076;2022-10-18T11:03:09;14.70;;;11.60;;
7539;SDS011;3811;49.006;12.076;2022-10-18T11:05:43;15.87;;;12.63;;
7539;SDS011;3811;49.006;12.076;2022-10-18T11:08:12;16.33;;;13.37;;
7539;SDS011;3811;49.006;12.076;2022-10-18T11:10:46;14.13;;;12.63;;
7539;SDS011;3811;49.006;12.076;2022-10-18T11:13:22;14.80;;;13.40;;
7539;SDS011;3811;49.006;12.076;2022-10-18T11:15:57;13.27;;;12.00;;
7539;SDS011;3811;49.006;12.076;2022-10-18T11:18:27;15.47;;;13.87;;
7539;SDS011;3811;49.006;12.076;2022-10-18T11:20:58;14.68;;;13.27;;
7539;SDS011;3811;49.006;12.076;2022-10-18T11:23:32;15.93;;;14.07;;
7539;SDS011;3811;49.006;12.076;2022-10-18T11:26:04;18.63;;;14.90;;
7539;SDS011;3811;49.006;12.076;2022-10-18T11:28:57;17.85;;;15.02;;
7539;SDS011;3811;49.006;12.076;2022-10-18T11:31:38;16.90;;;14.85;;
7539;SDS011;3811;49.006;12.076;2022-10-18T11:34:16;18.75;;;16.25;;
7539;SDS011;3811;49.006;12.076;2022-10-18T11:36:56;16.00;;;14.50;;
7539;SDS011;3811;49.006;12.076;2022-10-18T11:39:33;16.13;;;14.43;;
7539;SDS011;3811;49.006;12.076;2022-10-18T11:42:11;15.27;;;13.77;;
7539;SDS011;3811;49.006;12.076;2022-10-18T11:44:48;14.93;;;13.52;;
7539;SDS011;3811;49.006;12.076;2022-10-18T11:47:24;15.32;;;13.90;;
7539;SDS011;3811;49.006;12.076;2022-10-18T11:50:04;17.02;;;15.23;;
7539;SDS011;3811;49.006;12.076;2022-10-18T11:52:40;16.35;;;14.63;;
7539;SDS011;3811;49.006;12.076;2022-10-18T11:55:19;18.67;;;15.88;;
7539;SDS011;3811;49.006;12.076;2022-10-18T11:57:58;15.75;;;14.13;;
7539;SDS011;3811;49.006;12.076;2022-10-18T12:00:36;18.35;;;16.35;;
7539;SDS011;3811;49.006;12.076;2022-10-18T12:03:21;17.05;;;15.43;;
7539;SDS011;3811;49.006;12.076;2022-10-18T12:06:00;16.40;;;14.80;;
7539;SDS011;3811;49.006;12.076;2022-10-18T12:08:31;16.38;;;14.85;;
7539;SDS011;3811;49.006;12.076;2022-10-18T12:11:02;17.95;;;16.15;;
7539;SDS011;3811;49.006;12.076;2022-10-18T12:13:38;17.10;;;15.00;;
7539;SDS011;3811;49.006;12.076;2022-10-18T12:16:09;17.00;;;14.80;;
7539;SDS011;3811;49.006;12.076;2022-10-18T12:18:42;17.23;;;15.40;;
7539;SDS011;3811;49.006;12.076;2022-10-18T12:21:14;17.50;;;15.43;;
7539;SDS011;3811;49.006;12.076;2022-10-18T12:23:47;17.63;;;15.33;;
7539;SDS011;3811;49.006;12.076;2022-10-18T12:26:17;16.80;;;15.10;;
7539;SDS011;3811;49.006;12.076;2022-10-18T12:28:48;16.60;;;14.90;;
7539;SDS011;3811;49.006;12.076;2022-10-18T12:31:23;18.27;;;15.13;;
7539;SDS011;3811;49.006;12.076;2022-10-18T12:33:55;17.37;;;15.00;;
7539;SDS011;3811;49.006;12.076;2022-10-18T12:36:29;18.67;;;15.13;;
7539;SDS011;3811;49.006;12.076;2022-10-18T12:39:11;15.73;;;14.13;;
7539;SDS011;3811;49.006;12.076;2022-10-18T12:41:45;21.27;;;14.30;;
7539;SDS011;3811;49.006;12.076;2022-10-18T12:44:18;17.13;;;14.97;;
7539;SDS011;3811;49.006;12.076;2022-10-18T12:46:48;19.87;;;14.97;;
7539;SDS011;3811;49.006;12.076;2022-10-18T12:49:17;17.00;;;14.37;;
7539;SDS011;3811;49.006;12.076;2022-10-18T12:51:50;17.97;;;14.07;;
7539;SDS011;3811;49.006;12.076;2022-10-18T12:54:19;18.20;;;13.60;;
7539;SDS011;3811;49.006;12.076;2022-10-18T12:56:50;14.17;;;12.60;;
7539;SDS011;3811;49.006;12.076;2022-10-18T13:02:25;16.97;;;13.03;;
7539;SDS011;3811;49.006;12.076;2022-10-18T13:04:54;14.87;;;12.40;;
7539;SDS011;3811;49.006;12.076;2022-10-18T13:07:33;14.33;;;12.83;;
7539;SDS011;3811;49.006;12.076;2022-10-18T13:13:26;14.40;;;12.90;;
7539;SDS011;3811;49.006;12.076;2022-10-18T13:16:08;16.70;;;13.00;;
7539;SDS011;3811;49.006;12.076;2022-10-18T13:18:47;15.93;;;12.33;;
7539;SDS011;3811;49.006;12.076;2022-10-18T13:21:19;14.20;;;12.70;;
7539;SDS011;3811;49.006;12.076;2022-10-18T13:23:58;15.27;;;13.67;;
7539;SDS011;3811;49.006;12.076;2022-10-18T13:26:38;13.73;;;12.10;;
7539;SDS011;3811;49.006;12.076;2022-10-18T13:29:19;14.60;;;13.10;;
7539;SDS011;3811;49.006;12.076;2022-10-18T13:31:58;13.60;;;12.17;;
7539;SDS011;3811;49.006;12.076;2022-10-18T13:34:33;14.43;;;12.10;;
7539;SDS011;3811;49.006;12.076;2022-10-18T13:37:04;14.90;;;13.30;;
7539;SDS011;3811;49.006;12.076;2022-10-18T13:39:43;13.97;;;12.53;;
7539;SDS011;3811;49.006;12.076;2022-10-18T13:42:19;19.30;;;13.10;;
7539;SDS011;3811;49.006;12.076;2022-10-18T13:44:54;15.43;;;13.20;;
7539;SDS011;3811;49.006;12.076;2022-10-18T13:50:58;22.57;;;13.57;;
7539;SDS011;3811;49.006;12.076;2022-10-18T13:53:39;16.20;;;13.03;;
7539;SDS011;3811;49.006;12.076;2022-10-18T13:56:20;16.67;;;14.23;;
7539;SDS011;3811;49.006;12.076;2022-10-18T13:59:11;16.37;;;14.23;;
7539;SDS011;3811;49.006;12.076;2022-10-18T14:01:53;18.13;;;13.47;;
7539;SDS011;3811;49.006;12.076;2022-10-18T14:04:54;15.00;;;13.13;;
7539;SDS011;3811;49.006;12.076;2022-10-18T14:07:46;17.63;;;14.03;;
7539;SDS011;3811;49.006;12.076;2022-10-18T14:10:18;14.27;;;12.17;;
7539;SDS011;3811;49.006;12.076;2022-10-18T14:12:51;14.10;;;12.40;;
7539;SDS011;3811;49.006;12.076;2022-10-18T14:15:23;13.67;;;12.03;;
7539;SDS011;3811;49.006;12.076;2022-10-18T14:17:52;15.50;;;13.80;;
7539;SDS011;3811;49.006;12.076;2022-10-18T14:20:24;13.20;;;11.80;;
7539;SDS011;3811;49.006;12.076;2022-10-18T14:22:56;15.50;;;12.13;;
7539;SDS011;3811;49.006;12.076;2022-10-18T14:25:30;14.70;;;11.80;;
7539;SDS011;3811;49.006;12.076;2022-10-18T14:28:03;14.10;;;12.47;;
7539;SDS011;3811;49.006;12.076;2022-10-18T14:33:30;16.90;;;11.90;;
7539;SDS011;3811;49.006;12.076;2022-10-18T14:36:02;13.77;;;12.03;;
7539;SDS011;3811;49.006;12.076;2022-10-18T14:38:34;15.60;;;12.33;;
7539;SDS011;3811;49.006;12.076;2022-10-18T14:41:04;13.93;;;11.97;;
7539;SDS011;3811;49.006;12.076;2022-10-18T14:43:40;14.77;;;12.80;;
7539;SDS011;3811;49.006;12.076;2022-10-18T14:46:08;13.23;;;11.83;;
7539;SDS011;3811;49.006;12.076;2022-10-18T14:48:36;13.43;;;11.90;;
7539;SDS011;3811;49.006;12.076;2022-10-18T14:51:03;15.40;;;11.67;;
7539;SDS011;3811;49.006;12.076;2022-10-18T14:53:37;12.80;;;11.47;;
7539;SDS011;3811;49.006;12.076;2022-10-18T14:56:07;13.63;;;11.03;;
7539;SDS011;3811;49.006;12.076;2022-10-18T14:58:44;13.63;;;11.47;;
7539;SDS011;3811;49.006;12.076;2022-10-18T15:01:14;13.00;;;10.50;;
7539;SDS011;3811;49.006;12.076;2022-10-18T15:06:16;14.57;;;11.63;;
7539;SDS011;3811;49.006;12.076;2022-10-18T15:08:46;15.97;;;10.53;;
7539;SDS011;3811;49.006;12.076;2022-10-18T15:11:18;12.13;;;10.93;;
7539;SDS011;3811;49.006;12.076;2022-10-18T15:13:49;12.03;;;10.20;;
7539;SDS011;3811;49.006;12.076;2022-10-18T15:16:19;15.57;;;10.30;;
7539;SDS011;3811;49.006;12.076;2022-10-18T15:19:00;14.37;;;10.40;;
7539;SDS011;3811;49.006;12.076;2022-10-18T15:21:28;12.80;;;10.00;;
7539;SDS011;3811;49.006;12.076;2022-10-18T15:23:57;10.30;;;9.30;;